De Sui — BSFU — position and weather

sailwx.info

Track history (hours):
 
Tides and Currents Weather Stations Pressure Air Temp Water Temp Dewpoint Dewpoint Depression Visibility Wind Speed Wind Dir Waves Ship Positions

De Sui

Last reported at 2015-Feb-23 18:07 UTC. Time now 2015-Mar-01 11:02 UTC.
Position N 25°08' E 119°38'.

Length 65 m; draft 5 m.

Type: Tug. MMSI: 413070000.

Date/timePositionNaut miles runAvg speedWind from/ knotsBaromVisibWave heightAir tempDewpointWater temp
2015-Feb-23 18:07N 25°08' E 119°38'34 9.1
2015-Feb-23 14:23N 24°50' E 119°06'810.1
2015-Feb-23 13:33N 24°45' E 118°58'1010.0
2015-Feb-23 12:33N 24°39' E 118°49'32 9.2
2015-Feb-23 09:05N 24°16' E 118°25'4 8.1
2015-Feb-23 08:33N 24°13' E 118°21'8 8.1
2015-Feb-23 07:33N 24°08' E 118°14'9 8.5
2015-Feb-23 06:32N 24°03' E 118°07'10 8.8
2015-Feb-23 05:24N 23°56' E 117°59'  
Track history (hours):
 
Tides and Currents Weather Stations Pressure Air Temp Water Temp Dewpoint Dewpoint Depression Visibility Wind Speed Wind Dir Waves Ship Positions

De Sui

Last reported at 2015-Feb-23 18:07 UTC. Time now 2015-Mar-01 11:02 UTC.
Position N 25°08' E 119°38'.

Length 65 m; draft 5 m.

Type: Tug. MMSI: 413070000.

Date/timePositionNaut miles runAvg speedWind from/ knotsBaromVisibWave heightAir tempDewpointWater temp
2015-Feb-23 18:07N 25°08' E 119°38'34 9.1
2015-Feb-23 14:23N 24°50' E 119°06'810.1
2015-Feb-23 13:33N 24°45' E 118°58'1010.0
2015-Feb-23 12:33N 24°39' E 118°49'32 9.2
2015-Feb-23 09:05N 24°16' E 118°25'4 8.1
2015-Feb-23 08:33N 24°13' E 118°21'8 8.1
2015-Feb-23 07:33N 24°08' E 118°14'9 8.5
2015-Feb-23 06:32N 24°03' E 118°07'10 8.8
2015-Feb-23 05:24N 23°56' E 117°59'  

Dump ship's entire track history